Liberty, Maine
Current Conditions -  °F | °C
As of 5:55 AM on Sunday 23 Nov 2014 (Local Time) from KWVL Reporting Station
Broken Clouds Broken Clouds  
Wind Chill: 30°   Ceiling: 11000
Heat Index: 34°   Visibility: 10mi
Dew Point: 18°   Wind: 5mph
Humidity: 52%   Direction: 200°SSW
Pressure: 29.93"   Gusts: NA
Location:  44.39°N, 69.3°W
Report Text: KWVL 231055Z 20004KT 10SM SCT032 BKN110 01/M08 A2993 RMK AO1
Loading
Personal Weather Stations






























Interactive Weather Map New forecast layout! Learn more

10-Day Weather Forecast

Advertisements
Track Severe Weather on mobile